Time;durP1;ratioP1;P1;durP2;ratioP2;P2;SDS_P1;SDS_P2;PMS_P1;PMS_P2;Temp;Humidity;BMP_temperature;BMP_pressure;BME280_temperature;BME280_humidity;BME280_pressure;Samples;Min_cycle;Max_cycle;Signal;HPM_P1;HPM_P2
2021/09/03 00:00:41;;;;;;;12.32;5.82;;;;;;;;;;8223183;28;20045;-75
2021/09/03 00:04:46;;;;;;;12.68;5.47;;;;;;;;;;8193313;28;20050;-76
2021/09/03 00:08:51;;;;;;;13.23;5.55;;;;;;;;;;8223504;28;20526;-76
2021/09/03 00:12:56;;;;;;;11.88;5.07;;;;;;;;;;8242419;28;20072;-75
2021/09/03 00:17:02;;;;;;;10.60;5.03;;;;;;;;;;8257128;28;20526;-75
2021/09/03 00:21:08;;;;;;;10.77;5.78;;;;;;;;;;8239480;28;20480;-75
2021/09/03 00:25:13;;;;;;;12.50;5.07;;;;;;;;;;8237303;28;20395;-75
2021/09/03 00:29:19;;;;;;;13.60;5.32;;;;;;;;;;8256822;28;20049;-74
2021/09/03 00:33:24;;;;;;;8.70;4.82;;;;;;;;;;8256344;28;20526;-75
2021/09/03 00:37:29;;;;;;;14.98;5.85;;;;;;;;;;8260897;28;20467;-75
2021/09/03 00:41:34;;;;;;;14.32;7.47;;;;;;;;;;8261529;28;20493;-75
2021/09/03 00:45:39;;;;;;;11.48;5.55;;;;;;;;;;8261445;28;20464;-76
2021/09/03 00:49:44;;;;;;;10.70;5.57;;;;;;;;;;8243067;28;20045;-76
2021/09/03 00:53:50;;;;;;;11.05;5.28;;;;;;;;;;8261506;28;20467;-75
2021/09/03 00:57:55;;;;;;;11.38;6.35;;;;;;;;;;8227690;28;20365;-76
2021/09/03 01:02:00;;;;;;;10.73;4.93;;;;;;;;;;8243185;28;20341;-75
2021/09/03 01:06:06;;;;;;;16.73;6.10;;;;;;;;;;8263142;28;20067;-75
2021/09/03 01:10:12;;;;;;;14.50;6.38;;;;;;;;;;8260374;28;20455;-75
2021/09/03 01:14:17;;;;;;;14.20;6.15;;;;;;;;;;8243020;28;20041;-75
2021/09/03 01:18:22;;;;;;;13.18;6.63;;;;;;;;;;8243587;28;20475;-75
2021/09/03 01:22:27;;;;;;;13.77;6.28;;;;;;;;;;8244220;28;20071;-76
2021/09/03 01:26:33;;;;;;;14.63;6.75;;;;;;;;;;8243890;28;20037;-75
2021/09/03 01:30:38;;;;;;;12.68;6.32;;;;;;;;;;8259834;28;20389;-76
2021/09/03 01:34:44;;;;;;;13.85;6.72;;;;;;;;;;8260488;28;20053;-76
2021/09/03 01:38:50;;;;;;;12.40;7.13;;;;;;;;;;8259725;28;20068;-76
2021/09/03 01:42:55;;;;;;;14.93;6.68;;;;;;;;;;8260100;28;20480;-75
2021/09/03 01:47:00;;;;;;;15.50;7.40;;;;;;;;;;8259754;28;20059;-76
2021/09/03 01:51:05;;;;;;;15.48;7.82;;;;;;;;;;8225431;28;20371;-76
2021/09/03 01:55:11;;;;;;;17.88;6.45;;;;;;;;;;8260076;28;20499;-75
2021/09/03 01:59:16;;;;;;;16.92;7.68;;;;;;;;;;8242351;28;20484;-75
2021/09/03 02:03:22;;;;;;;17.73;8.02;;;;;;;;;;8259994;28;20483;-75
2021/09/03 02:07:27;;;;;;;16.85;8.05;;;;;;;;;;8258967;28;20467;-76
2021/09/03 02:11:33;;;;;;;18.85;8.43;;;;;;;;;;8242611;28;20494;-75
2021/09/03 02:15:38;;;;;;;18.65;8.55;;;;;;;;;;8244030;28;20063;-76
2021/09/03 02:19:44;;;;;;;18.70;8.10;;;;;;;;;;8260992;28;20455;-75
2021/09/03 02:23:49;;;;;;;20.30;8.52;;;;;;;;;;8226496;28;20463;-76
2021/09/03 02:27:55;;;;;;;25.13;8.48;;;;;;;;;;8259820;28;20510;-76
2021/09/03 02:32:00;;;;;;;28.60;10.38;;;;;;;;;;8260155;28;20344;-76
2021/09/03 02:36:06;;;;;;;32.92;10.73;;;;;;;;;;8259735;28;20372;-75
2021/09/03 02:40:11;;;;;;;32.92;10.90;;;;;;;;;;8259636;28;20464;-76
2021/09/03 02:44:17;;;;;;;39.58;12.05;;;;;;;;;;8259121;28;20468;-76
2021/09/03 02:48:22;;;;;;;34.47;11.73;;;;;;;;;;8258616;28;20480;-76
2021/09/03 02:52:27;;;;;;;44.67;12.35;;;;;;;;;;8259822;28;20356;-76
2021/09/03 02:56:32;;;;;;;48.38;12.82;;;;;;;;;;8259794;28;20330;-76
2021/09/03 03:00:37;;;;;;;50.33;12.75;;;;;;;;;;8241401;28;20506;-76
2021/09/03 03:04:43;;;;;;;44.70;13.63;;;;;;;;;;8243074;28;20451;-76
2021/09/03 03:08:49;;;;;;;40.88;12.70;;;;;;;;;;8259453;28;20076;-76
2021/09/03 03:12:54;;;;;;;34.38;12.75;;;;;;;;;;8239933;28;20505;-75
2021/09/03 03:17:04;;;;;;;53.75;11.32;;;;;;;;;;8258943;28;20471;-75
2021/09/03 03:21:09;;;;;;;32.15;11.80;;;;;;;;;;8246202;28;20403;-75
2021/09/03 03:25:15;;;;;;;68.85;11.15;;;;;;;;;;8259549;28;20450;-76
2021/09/03 03:29:20;;;;;;;85.03;10.65;;;;;;;;;;8243168;28;20407;-76
2021/09/03 03:33:25;;;;;;;29.23;10.25;;;;;;;;;;8243009;28;20480;-76
2021/09/03 03:37:30;;;;;;;22.70;9.65;;;;;;;;;;8258517;28;20368;-75
2021/09/03 03:41:37;;;;;;;34.10;9.38;;;;;;;;;;8240604;28;20337;-76
2021/09/03 03:45:42;;;;;;;35.85;10.65;;;;;;;;;;8244343;28;20363;-75
2021/09/03 03:49:48;;;;;;;19.58;8.68;;;;;;;;;;8261014;28;20510;-76
2021/09/03 03:53:53;;;;;;;33.03;8.23;;;;;;;;;;8260796;28;20063;-76
2021/09/03 03:57:58;;;;;;;30.25;9.02;;;;;;;;;;8244549;28;20371;-76
2021/09/03 04:02:03;;;;;;;14.48;7.97;;;;;;;;;;8264739;28;20594;-77
2021/09/03 04:06:08;;;;;;;25.63;7.68;;;;;;;;;;8243470;28;20402;-76
2021/09/03 04:10:13;;;;;;;27.73;7.50;;;;;;;;;;8259528;28;20380;-76
2021/09/03 04:14:19;;;;;;;15.95;6.80;;;;;;;;;;8267584;28;20483;-76
2021/09/03 04:18:24;;;;;;;20.42;6.85;;;;;;;;;;8246464;28;20415;-76
2021/09/03 04:22:29;;;;;;;14.70;6.68;;;;;;;;;;8245782;28;20067;-76
2021/09/03 04:26:34;;;;;;;44.17;7.93;;;;;;;;;;8262814;28;20049;-76
2021/09/03 04:30:40;;;;;;;23.88;7.50;;;;;;;;;;8246564;28;20407;-76
2021/09/03 04:34:45;;;;;;;58.97;8.30;;;;;;;;;;8264826;28;20483;-77
2021/09/03 04:38:50;;;;;;;43.88;8.50;;;;;;;;;;8263210;28;20425;-77
2021/09/03 04:42:55;;;;;;;71.35;8.57;;;;;;;;;;8266216;28;20448;-76
2021/09/03 04:47:01;;;;;;;49.30;8.65;;;;;;;;;;8267167;28;20358;-77
2021/09/03 04:51:06;;;;;;;47.50;8.55;;;;;;;;;;8263119;28;20490;-77
2021/09/03 04:55:12;;;;;;;94.20;8.35;;;;;;;;;;8262297;28;20379;-76
2021/09/03 04:59:17;;;;;;;37.65;7.65;;;;;;;;;;8243963;28;20410;-76
2021/09/03 05:03:22;;;;;;;32.85;6.88;;;;;;;;;;8263312;28;20479;-75
2021/09/03 05:07:27;;;;;;;45.38;7.97;;;;;;;;;;8245904;28;20063;-76
2021/09/03 05:11:32;;;;;;;21.10;6.63;;;;;;;;;;8242101;28;20116;-76
2021/09/03 05:15:42;;;;;;;15.93;7.95;;;;;;;;;;8262310;28;20329;-76
2021/09/03 05:19:47;;;;;;;21.17;8.02;;;;;;;;;;8242473;28;20357;-76
2021/09/03 05:23:53;;;;;;;29.13;7.43;;;;;;;;;;8242155;28;20407;-76
2021/09/03 05:27:58;;;;;;;26.13;7.47;;;;;;;;;;8252232;28;20505;-76
2021/09/03 05:32:03;;;;;;;37.15;8.02;;;;;;;;;;8259966;28;20071;-76
2021/09/03 05:36:09;;;;;;;35.33;7.75;;;;;;;;;;8244090;28;20067;-76
2021/09/03 05:40:14;;;;;;;44.35;7.63;;;;;;;;;;8263212;28;20376;-75
2021/09/03 05:44:19;;;;;;;36.30;7.53;;;;;;;;;;8260608;28;20348;-77
2021/09/03 05:48:24;;;;;;;27.25;7.80;;;;;;;;;;8243173;28;20406;-76
2021/09/03 05:52:30;;;;;;;29.90;8.38;;;;;;;;;;8262664;28;20455;-76
2021/09/03 05:56:37;;;;;;;18.42;7.50;;;;;;;;;;8261186;28;20052;-75
2021/09/03 06:00:42;;;;;;;21.30;9.35;;;;;;;;;;8261868;28;20466;-76
2021/09/03 06:04:47;;;;;;;31.17;11.65;;;;;;;;;;8245424;28;20467;-75
2021/09/03 06:08:53;;;;;;;17.20;9.45;;;;;;;;;;8263393;28;20456;-75
2021/09/03 06:12:58;;;;;;;19.80;9.77;;;;;;;;;;8260064;28;20071;-75
2021/09/03 06:17:03;;;;;;;23.95;11.07;;;;;;;;;;8244431;28;20400;-76
2021/09/03 06:21:09;;;;;;;36.85;11.95;;;;;;;;;;8243604;28;20479;-75
2021/09/03 06:25:15;;;;;;;31.33;12.75;;;;;;;;;;8260640;28;20700;-75
2021/09/03 06:33:39;;;;;;;28.88;13.13;;;;;;;;;;8254641;28;20487;-75
2021/09/03 06:37:45;;;;;;;29.33;13.55;;;;;;;;;;8255710;28;20383;-75
2021/09/03 06:41:50;;;;;;;26.52;13.80;;;;;;;;;;8256736;28;20674;-75
2021/09/03 06:45:55;;;;;;;28.77;14.30;;;;;;;;;;8260595;28;20125;-75
2021/09/03 06:50:00;;;;;;;32.65;15.63;;;;;;;;;;8241774;28;20478;-75
2021/09/03 06:54:05;;;;;;;31.35;15.20;;;;;;;;;;8261280;28;20332;-75
2021/09/03 06:58:10;;;;;;;34.15;15.65;;;;;;;;;;8241553;28;20375;-75
2021/09/03 07:02:15;;;;;;;30.20;15.77;;;;;;;;;;8259612;28;20476;-76
2021/09/03 07:06:21;;;;;;;34.15;17.02;;;;;;;;;;8259760;28;20384;-76
2021/09/03 07:10:26;;;;;;;47.33;20.35;;;;;;;;;;8241709;28;20443;-76
2021/09/03 07:14:31;;;;;;;29.92;18.15;;;;;;;;;;8260037;28;20472;-76
2021/09/03 07:18:36;;;;;;;41.88;18.27;;;;;;;;;;8242265;28;20041;-75
2021/09/03 07:22:41;;;;;;;36.53;17.85;;;;;;;;;;8241661;28;20475;-75
2021/09/03 07:26:46;;;;;;;44.45;19.58;;;;;;;;;;8260409;28;20041;-75
2021/09/03 07:30:53;;;;;;;32.72;17.77;;;;;;;;;;8260027;28;20463;-75
2021/09/03 07:34:57;;;;;;;31.90;17.55;;;;;;;;;;8241020;28;20444;-75
2021/09/03 07:39:03;;;;;;;35.28;17.50;;;;;;;;;;8239674;28;20476;-75
2021/09/03 07:43:09;;;;;;;31.08;15.40;;;;;;;;;;8244356;28;20489;-75
2021/09/03 07:47:14;;;;;;;28.92;14.65;;;;;;;;;;8269390;28;20452;-75
2021/09/03 07:51:19;;;;;;;29.83;15.13;;;;;;;;;;8247010;28;20397;-75
2021/09/03 07:55:24;;;;;;;21.02;13.30;;;;;;;;;;8266445;28;20435;-74
2021/09/03 07:59:29;;;;;;;26.15;12.07;;;;;;;;;;8246282;28;20472;-75
2021/09/03 08:03:34;;;;;;;23.05;11.07;;;;;;;;;;8247393;28;20375;-75
2021/09/03 08:07:42;;;;;;;17.92;9.88;;;;;;;;;;8245674;28;20057;-74
2021/09/03 08:11:47;;;;;;;21.53;10.37;;;;;;;;;;8230369;28;20053;-74
2021/09/03 08:15:52;;;;;;;23.10;9.93;;;;;;;;;;8265282;28;20435;-75
2021/09/03 08:19:58;;;;;;;23.65;8.88;;;;;;;;;;8247357;28;20464;-76
2021/09/03 08:24:04;;;;;;;23.95;9.10;;;;;;;;;;8264406;28;20375;-74
2021/09/03 08:28:10;;;;;;;20.50;10.00;;;;;;;;;;8264728;28;20364;-75
2021/09/03 08:32:15;;;;;;;20.65;9.35;;;;;;;;;;8265562;28;20484;-74
2021/09/03 08:36:21;;;;;;;23.58;9.90;;;;;;;;;;8266172;28;20455;-75
2021/09/03 08:40:26;;;;;;;23.15;10.20;;;;;;;;;;8264099;28;20463;-75
2021/09/03 08:44:33;;;;;;;21.48;8.70;;;;;;;;;;8246634;28;20345;-75
2021/09/03 08:48:40;;;;;;;20.80;8.68;;;;;;;;;;8263025;28;20448;-75
2021/09/03 08:52:49;;;;;;;19.33;7.15;;;;;;;;;;8246537;28;20483;-75
2021/09/03 08:56:54;;;;;;;17.90;7.03;;;;;;;;;;8262107;28;20414;-75
2021/09/03 09:01:11;;;;;;;16.30;6.50;;;;;;;;;;8262321;28;20059;-75
2021/09/03 09:05:17;;;;;;;20.38;6.25;;;;;;;;;;8264156;28;20343;-75
2021/09/03 09:09:31;;;;;;;12.88;6.63;;;;;;;;;;8262113;28;20352;-76
2021/09/03 09:13:40;;;;;;;12.40;6.18;;;;;;;;;;8245487;28;20052;-75
2021/09/03 09:17:45;;;;;;;9.55;3.70;;;;;;;;;;8247189;28;20334;-74
2021/09/03 09:22:00;;;;;;;9.43;3.90;;;;;;;;;;8264075;28;20372;-77
2021/09/03 09:26:06;;;;;;;7.78;3.33;;;;;;;;;;8247912;28;20057;-74
2021/09/03 09:30:26;;;;;;;8.45;3.65;;;;;;;;;;8266657;28;20384;-76
2021/09/03 09:34:35;;;;;;;5.60;2.97;;;;;;;;;;8262473;28;20045;-75
2021/09/03 09:38:40;;;;;;;14.05;3.58;;;;;;;;;;8263657;28;20383;-73
2021/09/03 09:42:45;;;;;;;8.73;3.60;;;;;;;;;;8263407;28;20474;-74
2021/09/03 09:47:02;;;;;;;9.52;3.03;;;;;;;;;;8263646;28;20402;-77
2021/09/03 09:51:11;;;;;;;11.32;3.35;;;;;;;;;;8247055;28;20536;-75
2021/09/03 09:55:16;;;;;;;7.72;2.95;;;;;;;;;;8261541;28;20482;-75
2021/09/03 09:59:24;;;;;;;6.82;3.38;;;;;;;;;;8259803;28;20476;-74
2021/09/03 10:03:29;;;;;;;6.95;3.22;;;;;;;;;;8261362;28;20053;-74
2021/09/03 10:07:34;;;;;;;5.00;3.20;;;;;;;;;;8244336;28;20068;-75
2021/09/03 10:11:44;;;;;;;5.20;3.15;;;;;;;;;;8261461;28;20451;-74
2021/09/03 10:15:50;;;;;;;7.70;3.17;;;;;;;;;;8242915;28;20380;-74
2021/09/03 10:19:55;;;;;;;7.28;2.85;;;;;;;;;;8242583;28;20379;-75
2021/09/03 10:24:22;;;;;;;5.40;2.97;;;;;;;;;;8241620;28;20067;-75
2021/09/03 10:28:27;;;;;;;7.38;2.47;;;;;;;;;;8260317;28;20368;-76
2021/09/03 10:32:36;;;;;;;7.30;3.00;;;;;;;;;;8260183;28;20053;-77
2021/09/03 10:37:00;;;;;;;6.50;3.50;;;;;;;;;;8261820;28;20071;-73
2021/09/03 10:41:05;;;;;;;11.52;3.42;;;;;;;;;;8243016;28;20368;-76
2021/09/03 10:45:23;;;;;;;7.40;3.75;;;;;;;;;;8261384;28;20487;-74
2021/09/03 10:49:28;;;;;;;6.93;3.47;;;;;;;;;;8246083;28;20375;-75
2021/09/03 10:53:35;;;;;;;5.53;2.90;;;;;;;;;;8242283;28;20376;-75
2021/09/03 10:58:00;;;;;;;11.88;3.88;;;;;;;;;;8260969;28;20467;-75
2021/09/03 11:02:13;;;;;;;6.07;3.53;;;;;;;;;;8242821;28;20052;-75
2021/09/03 11:06:28;;;;;;;5.32;2.65;;;;;;;;;;8243553;28;20506;-74
2021/09/03 11:10:33;;;;;;;9.68;2.85;;;;;;;;;;8260480;28;20476;-74
2021/09/03 11:14:40;;;;;;;5.00;3.25;;;;;;;;;;8261327;28;20372;-76
2021/09/03 11:19:14;;;;;;;4.70;2.47;;;;;;;;;;8225981;28;20468;-77
2021/09/03 11:23:20;;;;;;;6.82;2.80;;;;;;;;;;8242423;28;20041;-74
2021/09/03 11:27:29;;;;;;;5.55;3.10;;;;;;;;;;8242034;28;20359;-74
2021/09/03 11:31:34;;;;;;;3.88;2.70;;;;;;;;;;8258105;28;20403;-75
2021/09/03 11:35:39;;;;;;;6.68;3.05;;;;;;;;;;8241534;28;20410;-74
2021/09/03 11:39:46;;;;;;;10.77;3.28;;;;;;;;;;8241376;28;20466;-75
2021/09/03 11:43:51;;;;;;;8.88;2.63;;;;;;;;;;8258358;28;20364;-73
2021/09/03 11:47:59;;;;;;;6.88;2.55;;;;;;;;;;8258579;28;20490;-74
2021/09/03 11:52:06;;;;;;;3.63;2.60;;;;;;;;;;8242359;28;20484;-74
2021/09/03 11:56:13;;;;;;;;;;;;;;;;;;8241155;28;20467;-74
2021/09/03 12:00:24;;;;;;;5.90;2.80;;;;;;;;;;8241722;28;19921;-74
2021/09/03 12:04:30;;;;;;;5.00;2.55;;;;;;;;;;8241416;28;20380;-75
2021/09/03 12:08:37;;;;;;;5.13;2.78;;;;;;;;;;8259770;28;20470;-75
2021/09/03 12:12:43;;;;;;;4.53;2.67;;;;;;;;;;8240129;28;20579;-74
2021/09/03 12:16:49;;;;;;;6.50;2.72;;;;;;;;;;8255696;28;20056;-75
2021/09/03 12:21:11;;;;;;;4.88;2.65;;;;;;;;;;8244665;28;20479;-74
2021/09/03 12:25:32;;;;;;;3.53;2.55;;;;;;;;;;8241121;28;20360;-74
2021/09/03 12:29:37;;;;;;;4.85;2.88;;;;;;;;;;8258597;28;20044;-74
2021/09/03 12:34:17;;;;;;;3.28;2.08;;;;;;;;;;8266063;28;20068;-74
2021/09/03 12:38:40;;;;;;;4.65;2.75;;;;;;;;;;8246622;28;20355;-73
2021/09/03 12:42:45;;;;;;;4.50;2.63;;;;;;;;;;8249523;28;20349;-75
2021/09/03 12:46:58;;;;;;;5.82;3.08;;;;;;;;;;8264681;28;20364;-75
2021/09/03 12:51:04;;;;;;;5.53;3.05;;;;;;;;;;8248038;28;20122;-75
2021/09/03 12:55:09;;;;;;;5.85;3.35;;;;;;;;;;8265935;28;20364;-74
2021/09/03 12:59:15;;;;;;;6.60;2.63;;;;;;;;;;8264542;28;20375;-74
2021/09/03 13:03:20;;;;;;;4.65;3.28;;;;;;;;;;8246359;28;20070;-74
2021/09/03 13:07:26;;;;;;;5.38;2.78;;;;;;;;;;8246240;28;20464;-74
2021/09/03 13:11:31;;;;;;;7.25;3.03;;;;;;;;;;8246702;28;20360;-74
2021/09/03 13:15:36;;;;;;;6.45;2.85;;;;;;;;;;8228550;28;20364;-75
2021/09/03 13:19:42;;;;;;;8.13;3.13;;;;;;;;;;8263716;28;20051;-73
2021/09/03 13:23:47;;;;;;;7.03;3.30;;;;;;;;;;8262958;28;20037;-76
2021/09/03 13:27:52;;;;;;;5.10;3.10;;;;;;;;;;8262422;28;20049;-73
2021/09/03 13:31:58;;;;;;;3.97;2.65;;;;;;;;;;8263053;28;20390;-75
2021/09/03 13:36:03;;;;;;;7.97;3.40;;;;;;;;;;8245531;28;20360;-75
2021/09/03 13:40:09;;;;;;;5.03;3.40;;;;;;;;;;8262874;28;20449;-75
2021/09/03 13:44:14;;;;;;;7.35;3.10;;;;;;;;;;8261891;28;21018;-73
2021/09/03 13:48:19;;;;;;;5.72;3.05;;;;;;;;;;8261684;28;20049;-73
2021/09/03 13:52:25;;;;;;;4.15;2.67;;;;;;;;;;8262601;28;20486;-75
2021/09/03 13:56:30;;;;;;;5.57;2.47;;;;;;;;;;8259984;28;20460;-74
2021/09/03 14:00:35;;;;;;;6.93;2.30;;;;;;;;;;8243449;28;20059;-75
2021/09/03 14:04:42;;;;;;;5.78;2.65;;;;;;;;;;8259829;28;20487;-75
2021/09/03 14:08:47;;;;;;;8.40;2.58;;;;;;;;;;8242688;28;20403;-74
2021/09/03 14:12:53;;;;;;;5.70;3.08;;;;;;;;;;8241961;28;20506;-74
2021/09/03 14:16:58;;;;;;;4.63;2.70;;;;;;;;;;8258940;28;20484;-74
2021/09/03 14:21:04;;;;;;;4.30;2.55;;;;;;;;;;8241179;28;20456;-75
2021/09/03 14:25:10;;;;;;;8.93;2.50;;;;;;;;;;8258833;28;20374;-74
2021/09/03 14:29:15;;;;;;;5.47;2.50;;;;;;;;;;8259040;28;20041;-74
2021/09/03 14:33:20;;;;;;;4.85;2.65;;;;;;;;;;8258875;28;20372;-74
2021/09/03 14:37:25;;;;;;;5.10;2.65;;;;;;;;;;8260936;28;20364;-74
2021/09/03 14:41:30;;;;;;;6.07;2.03;;;;;;;;;;8250913;28;20356;-75
2021/09/03 14:45:35;;;;;;;3.25;2.30;;;;;;;;;;8225822;28;20448;-74
2021/09/03 14:49:40;;;;;;;5.38;2.72;;;;;;;;;;8207816;28;20338;-73
2021/09/03 14:53:46;;;;;;;6.90;2.63;;;;;;;;;;8206090;28;20380;-73
2021/09/03 14:57:51;;;;;;;4.93;2.17;;;;;;;;;;8248514;28;20368;-74
2021/09/03 15:01:56;;;;;;;7.10;2.70;;;;;;;;;;8254779;28;20461;-73
2021/09/03 15:06:01;;;;;;;10.85;2.63;;;;;;;;;;8239875;28;20474;-73
2021/09/03 15:10:07;;;;;;;4.65;2.60;;;;;;;;;;8228234;28;20348;-75
2021/09/03 15:14:13;;;;;;;93.07;13.82;;;;;;;;;;8256181;28;20045;-73
2021/09/03 15:18:20;;;;;;;7.20;2.78;;;;;;;;;;8257391;28;20459;-74
2021/09/03 15:22:25;;;;;;;5.85;2.92;;;;;;;;;;8220453;28;20461;-73
2021/09/03 15:26:32;;;;;;;4.13;2.53;;;;;;;;;;8225957;28;20041;-74
2021/09/03 15:30:36;;;;;;;6.30;2.67;;;;;;;;;;8210334;28;20342;-74
2021/09/03 15:34:42;;;;;;;4.07;2.47;;;;;;;;;;8239191;28;20483;-74
2021/09/03 15:38:47;;;;;;;3.97;2.17;;;;;;;;;;8257176;28;20475;-73
2021/09/03 15:42:52;;;;;;;4.75;2.30;;;;;;;;;;8240610;28;20372;-74
2021/09/03 15:46:58;;;;;;;5.70;2.88;;;;;;;;;;8219787;28;20453;-73
2021/09/03 15:51:03;;;;;;;6.05;2.90;;;;;;;;;;8218893;28;20041;-73
2021/09/03 15:55:07;;;;;;;6.55;2.60;;;;;;;;;;8259076;28;20460;-73
2021/09/03 15:59:11;;;;;;;6.93;2.72;;;;;;;;;;8240174;28;20360;-74
2021/09/03 16:03:15;;;;;;;7.50;2.30;;;;;;;;;;8239321;28;20480;-73
2021/09/03 16:07:20;;;;;;;4.63;2.63;;;;;;;;;;8255104;28;20452;-73
2021/09/03 16:11:24;;;;;;;8.02;3.03;;;;;;;;;;8262430;28;20053;-73
2021/09/03 16:15:28;;;;;;;11.30;3.22;;;;;;;;;;8262983;28;20475;-73
2021/09/03 16:19:34;;;;;;;11.68;3.05;;;;;;;;;;8244869;28;20476;-73
2021/09/03 16:23:40;;;;;;;14.57;3.35;;;;;;;;;;8246812;28;20488;-73
2021/09/03 16:27:46;;;;;;;8.93;3.20;;;;;;;;;;8262924;28;20348;-73
2021/09/03 16:31:51;;;;;;;9.27;4.28;;;;;;;;;;8245274;28;20475;-73
2021/09/03 16:35:56;;;;;;;9.15;4.60;;;;;;;;;;8264019;28;20476;-73
2021/09/03 16:40:05;;;;;;;17.33;8.75;;;;;;;;;;8227878;28;20464;-73
2021/09/03 16:44:10;;;;;;;174.55;66.07;;;;;;;;;;8263259;28;20498;-73
2021/09/03 16:48:15;;;;;;;38.78;14.38;;;;;;;;;;8228825;28;20345;-73
2021/09/03 16:52:20;;;;;;;21.10;8.30;;;;;;;;;;8262172;28;20399;-73
2021/09/03 16:56:25;;;;;;;17.67;6.22;;;;;;;;;;8251100;28;20445;-73
2021/09/03 17:00:31;;;;;;;30.83;6.00;;;;;;;;;;8228640;28;20041;-73
2021/09/03 17:04:36;;;;;;;17.75;6.10;;;;;;;;;;8228088;28;20045;-73
2021/09/03 17:08:41;;;;;;;14.02;5.05;;;;;;;;;;8230059;28;20060;-73
2021/09/03 17:12:47;;;;;;;16.50;5.63;;;;;;;;;;8227026;28;20420;-73
2021/09/03 17:16:52;;;;;;;12.68;5.22;;;;;;;;;;8232380;28;20045;-73
2021/09/03 17:20:57;;;;;;;17.15;4.68;;;;;;;;;;8261188;28;20337;-73
2021/09/03 17:25:02;;;;;;;14.65;5.22;;;;;;;;;;8259887;28;20049;-73
2021/09/03 17:29:09;;;;;;;15.35;5.40;;;;;;;;;;8244217;28;20382;-73
2021/09/03 17:33:15;;;;;;;16.15;5.43;;;;;;;;;;8226315;28;20053;-73
2021/09/03 17:37:18;;;;;;;30.40;10.10;;;;;;;;;;8238645;28;20461;-73
2021/09/03 17:41:23;;;;;;;22.90;7.07;;;;;;;;;;8224345;28;20440;-73
2021/09/03 17:45:29;;;;;;;20.02;5.32;;;;;;;;;;8248473;28;20049;-73
2021/09/03 17:49:34;;;;;;;23.50;5.13;;;;;;;;;;8218662;28;20376;-74
2021/09/03 17:53:39;;;;;;;13.98;4.85;;;;;;;;;;8253305;28;20431;-73
2021/09/03 17:57:44;;;;;;;7.88;3.90;;;;;;;;;;8260662;28;20329;-73
2021/09/03 18:01:50;;;;;;;7.15;3.88;;;;;;;;;;8241193;28;20506;-73
2021/09/03 18:05:54;;;;;;;11.45;3.35;;;;;;;;;;8261325;28;20049;-73
2021/09/03 18:09:59;;;;;;;6.63;3.47;;;;;;;;;;8242801;28;20067;-73
2021/09/03 18:14:06;;;;;;;11.73;4.95;;;;;;;;;;8258583;28;20365;-73
2021/09/03 18:18:10;;;;;;;13.82;7.05;;;;;;;;;;8261613;28;20362;-73
2021/09/03 18:22:15;;;;;;;23.00;7.80;;;;;;;;;;8241820;28;20475;-73
2021/09/03 18:26:22;;;;;;;27.25;10.18;;;;;;;;;;8240430;28;20341;-73
2021/09/03 18:30:28;;;;;;;23.27;10.85;;;;;;;;;;8257291;28;20372;-73
2021/09/03 18:34:33;;;;;;;30.15;13.23;;;;;;;;;;8240892;28;20041;-73
2021/09/03 18:38:39;;;;;;;33.13;15.90;;;;;;;;;;8256044;28;20472;-73
2021/09/03 18:42:44;;;;;;;32.33;14.77;;;;;;;;;;8240572;28;20444;-73
2021/09/03 18:46:48;;;;;;;24.77;11.55;;;;;;;;;;8259099;28;20371;-73
2021/09/03 18:50:53;;;;;;;22.60;11.13;;;;;;;;;;8258202;28;20722;-73
2021/09/03 18:54:58;;;;;;;23.17;12.95;;;;;;;;;;8258716;28;20331;-73
2021/09/03 18:59:04;;;;;;;29.15;12.90;;;;;;;;;;8260088;28;20459;-73
2021/09/03 19:03:09;;;;;;;31.98;12.52;;;;;;;;;;8257756;28;20492;-73
2021/09/03 19:07:15;;;;;;;25.20;11.68;;;;;;;;;;8257164;28;20406;-73
2021/09/03 19:11:21;;;;;;;20.40;9.55;;;;;;;;;;8240046;28;20071;-73
2021/09/03 19:15:25;;;;;;;20.88;10.27;;;;;;;;;;8257452;28;20415;-73
2021/09/03 19:19:31;;;;;;;24.90;8.20;;;;;;;;;;8259300;28;20464;-73
2021/09/03 19:23:37;;;;;;;18.83;9.38;;;;;;;;;;8258902;28;20059;-73
2021/09/03 19:27:43;;;;;;;17.23;7.38;;;;;;;;;;8254228;28;20045;-73
2021/09/03 19:31:49;;;;;;;19.55;8.63;;;;;;;;;;8258068;28;20483;-74
2021/09/03 19:35:54;;;;;;;16.73;7.68;;;;;;;;;;8258154;28;20353;-73
2021/09/03 19:39:59;;;;;;;15.73;8.02;;;;;;;;;;8256137;28;20371;-73
2021/09/03 19:44:05;;;;;;;19.23;8.93;;;;;;;;;;8245251;28;20475;-73
2021/09/03 19:48:09;;;;;;;15.20;7.70;;;;;;;;;;8195252;28;20468;-73
2021/09/03 19:52:14;;;;;;;11.23;6.72;;;;;;;;;;8232692;28;20332;-73
2021/09/03 19:56:21;;;;;;;9.98;6.28;;;;;;;;;;8196458;28;20068;-73
2021/09/03 20:00:26;;;;;;;10.48;6.25;;;;;;;;;;8229651;28;20468;-73
2021/09/03 20:04:31;;;;;;;12.13;6.32;;;;;;;;;;8213351;28;20421;-73
2021/09/03 20:08:37;;;;;;;20.52;8.45;;;;;;;;;;8228825;28;20045;-73
2021/09/03 20:12:42;;;;;;;17.98;8.02;;;;;;;;;;8212831;28;20057;-73
2021/09/03 20:16:49;;;;;;;11.80;6.28;;;;;;;;;;8230992;28;20407;-74
2021/09/03 20:20:54;;;;;;;11.95;5.60;;;;;;;;;;8231079;28;20344;-73
2021/09/03 20:25:00;;;;;;;14.73;5.97;;;;;;;;;;8230606;28;20380;-73
2021/09/03 20:29:05;;;;;;;10.88;5.72;;;;;;;;;;8212750;28;20456;-73
2021/09/03 20:33:12;;;;;;;16.17;7.85;;;;;;;;;;8230772;28;20356;-73
2021/09/03 20:37:17;;;;;;;16.25;6.82;;;;;;;;;;8231868;28;20365;-73
2021/09/03 20:41:22;;;;;;;25.13;8.82;;;;;;;;;;8232597;28;20342;-73
2021/09/03 20:45:28;;;;;;;25.42;10.02;;;;;;;;;;8231405;28;20041;-73
2021/09/03 20:49:34;;;;;;;19.30;9.63;;;;;;;;;;8228597;28;20401;-73
2021/09/03 20:53:39;;;;;;;18.90;9.30;;;;;;;;;;8211604;28;20364;-73
2021/09/03 20:57:44;;;;;;;16.05;8.63;;;;;;;;;;8229512;28;20506;-73
2021/09/03 21:01:49;;;;;;;13.18;7.40;;;;;;;;;;8229504;28;20053;-74
2021/09/03 21:05:55;;;;;;;11.18;6.20;;;;;;;;;;8162309;28;20400;-75
2021/09/03 21:10:02;;;;;;;10.68;5.65;;;;;;;;;;8227201;28;20338;-72
2021/09/03 21:14:10;;;;;;;9.65;5.60;;;;;;;;;;8226048;28;20465;-73
2021/09/03 21:18:13;;;;;;;8.68;5.50;;;;;;;;;;8210301;28;20499;-74
2021/09/03 21:22:18;;;;;;;9.95;5.60;;;;;;;;;;8210941;28;20069;-73
2021/09/03 21:26:24;;;;;;;10.10;5.82;;;;;;;;;;8229957;28;20492;-74
2021/09/03 21:30:30;;;;;;;9.73;5.13;;;;;;;;;;8210939;28;20380;-73
2021/09/03 21:34:36;;;;;;;12.18;5.10;;;;;;;;;;8229622;28;20473;-73
2021/09/03 21:38:41;;;;;;;16.35;6.75;;;;;;;;;;8211721;28;20456;-73
2021/09/03 21:42:46;;;;;;;13.13;6.25;;;;;;;;;;8229405;28;20387;-73
2021/09/03 21:46:52;;;;;;;11.85;5.32;;;;;;;;;;8227329;28;20418;-73
2021/09/03 21:50:57;;;;;;;13.55;7.45;;;;;;;;;;8209903;28;20384;-73
2021/09/03 21:55:02;;;;;;;18.75;6.78;;;;;;;;;;8227216;28;20507;-73
2021/09/03 21:59:07;;;;;;;12.55;5.53;;;;;;;;;;8227039;28;20380;-73
2021/09/03 22:03:12;;;;;;;8.07;5.22;;;;;;;;;;8227537;28;20487;-73
2021/09/03 22:07:18;;;;;;;11.93;5.82;;;;;;;;;;8225457;28;20045;-73
2021/09/03 22:11:23;;;;;;;12.30;6.18;;;;;;;;;;8225114;28;20489;-73
2021/09/03 22:15:28;;;;;;;11.60;5.47;;;;;;;;;;8228162;28;20476;-73
2021/09/03 22:19:33;;;;;;;10.38;5.20;;;;;;;;;;8209686;28;20364;-73
2021/09/03 22:23:39;;;;;;;8.88;5.00;;;;;;;;;;8225010;28;20053;-73
2021/09/03 22:27:44;;;;;;;9.88;5.38;;;;;;;;;;8225735;28;20352;-74
2021/09/03 22:31:50;;;;;;;15.60;5.13;;;;;;;;;;8192579;28;20391;-73
2021/09/03 22:35:55;;;;;;;10.35;5.00;;;;;;;;;;8226423;28;20379;-73
2021/09/03 22:40:01;;;;;;;10.48;5.80;;;;;;;;;;8208290;28;20400;-73
2021/09/03 22:44:07;;;;;;;11.85;6.20;;;;;;;;;;8227602;28;20488;-73
2021/09/03 22:48:12;;;;;;;13.70;5.20;;;;;;;;;;8226611;28;20364;-73
2021/09/03 22:52:18;;;;;;;13.77;5.20;;;;;;;;;;8209159;28;20445;-73
2021/09/03 22:56:23;;;;;;;14.93;6.35;;;;;;;;;;8225501;28;20491;-73
2021/09/03 23:00:28;;;;;;;11.68;5.90;;;;;;;;;;8225850;28;20377;-73
2021/09/03 23:04:34;;;;;;;14.93;5.40;;;;;;;;;;8206894;28;20484;-73
2021/09/03 23:08:39;;;;;;;13.38;5.68;;;;;;;;;;8224667;28;20079;-74
2021/09/03 23:12:44;;;;;;;11.73;4.43;;;;;;;;;;8207801;28;20504;-73
2021/09/03 23:16:49;;;;;;;7.05;4.40;;;;;;;;;;8225463;28;20364;-73
2021/09/03 23:20:54;;;;;;;8.45;4.82;;;;;;;;;;8207529;28;20484;-73
2021/09/03 23:24:59;;;;;;;11.10;5.50;;;;;;;;;;8225623;28;20471;-73
2021/09/03 23:29:05;;;;;;;11.52;5.20;;;;;;;;;;8225220;28;20452;-73
2021/09/03 23:33:10;;;;;;;10.93;5.30;;;;;;;;;;8224625;28;20045;-73
2021/09/03 23:37:16;;;;;;;14.70;5.75;;;;;;;;;;8225690;28;20463;-73
2021/09/03 23:41:21;;;;;;;9.90;5.18;;;;;;;;;;8224743;28;20485;-73
2021/09/03 23:45:27;;;;;;;15.90;7.10;;;;;;;;;;8206881;28;20441;-73
2021/09/03 23:49:32;;;;;;;9.35;5.70;;;;;;;;;;8224393;28;20392;-73
2021/09/03 23:53:37;;;;;;;15.13;5.88;;;;;;;;;;8225789;28;20473;-73
2021/09/03 23:57:42;;;;;;;11.00;5.50;;;;;;;;;;8207098;28;20064;-73
